Terminal Aerodrome Forecast
Issued by NWS

Home | Current Version | Previous Version | Text Only | Print | Product List | Glossary On
Versions: 1 2 3 4 5 6 7 8 9 10 11 12
000
FTUS45 KABQ 231100
TAFGUP
TAF
KGUP 231128Z 2312/2412 24010G17KT P6SM VCSH BKN090
     FM231700 30018G28KT P6SM SCT090
     FM240100 32006KT P6SM FEW120
     FM240600 VRB03KT P6SM SKC=

USA.gov is the U.S. government's official web portal to all federal, state and local government web resources and services.